createdAt,value
2019-04-07T00:00:09.284Z,29.00
2019-04-07T00:02:37.046Z,28.90
2019-04-07T00:05:12.356Z,25.60
2019-04-07T00:07:34.523Z,25.80
2019-04-07T00:10:02.876Z,26.63
2019-04-07T00:12:31.047Z,24.63
2019-04-07T00:14:58.932Z,21.07
2019-04-07T00:17:27.243Z,20.00
2019-04-07T00:19:55.734Z,19.77
2019-04-07T00:22:23.839Z,20.47
2019-04-07T00:24:51.606Z,23.40
2019-04-07T00:27:19.987Z,19.07
2019-04-07T00:29:48.653Z,20.20
2019-04-07T00:32:16.753Z,17.40
2019-04-07T00:34:45.145Z,19.10
2019-04-07T00:37:13.923Z,21.23
2019-04-07T00:39:42.276Z,20.47
2019-04-07T00:42:10.468Z,17.60
2019-04-07T00:44:38.982Z,22.17
2019-04-07T00:47:07.383Z,18.30
2019-04-07T00:49:35.761Z,18.27
2019-04-07T00:52:05.060Z,20.87
2019-04-07T00:54:32.798Z,22.13
2019-04-07T00:57:00.990Z,23.13
2019-04-07T00:59:29.719Z,21.47
2019-04-07T01:01:58.009Z,27.30
2019-04-07T01:04:26.514Z,21.87
2019-04-07T01:06:54.850Z,20.73
2019-04-07T01:09:23.279Z,21.70
2019-04-07T01:11:52.275Z,17.30
2019-04-07T01:14:20.186Z,18.23
2019-04-07T01:16:48.219Z,18.83
2019-04-07T01:19:16.223Z,18.03
2019-04-07T01:21:44.488Z,15.80
2019-04-07T01:24:12.406Z,16.87
2019-04-07T01:26:40.494Z,20.10
2019-04-07T01:29:09.225Z,17.13
2019-04-07T01:31:37.372Z,19.37
2019-04-07T01:34:05.967Z,22.50
2019-04-07T01:36:33.856Z,22.07
2019-04-07T01:39:01.744Z,18.07
2019-04-07T01:41:51.446Z,16.53
2019-04-07T01:44:41.059Z,18.50
2019-04-07T01:47:27.761Z,16.13
2019-04-07T01:50:09.729Z,20.43
2019-04-07T01:52:43.802Z,17.87
2019-04-07T01:55:25.791Z,19.13
2019-04-07T01:58:12.760Z,20.67
2019-04-07T02:00:58.809Z,25.37
2019-04-07T02:03:37.333Z,17.80
2019-04-07T02:06:23.177Z,16.30
2019-04-07T02:09:10.290Z,17.63
2019-04-07T02:12:01.610Z,20.63
2019-04-07T02:14:54.876Z,17.67
2019-04-07T02:17:40.677Z,17.90
2019-04-07T02:20:34.496Z,20.43
2019-04-07T02:23:30.283Z,20.30
2019-04-07T02:26:09.285Z,20.40
2019-04-07T02:28:58.836Z,16.83
2019-04-07T02:31:52.269Z,18.97
2019-04-07T02:34:26.104Z,16.77
2019-04-07T02:37:07.309Z,20.10
2019-04-07T02:39:59.979Z,17.93
2019-04-07T02:42:48.324Z,18.67
2019-04-07T02:45:24.543Z,18.27
2019-04-07T02:48:24.143Z,19.80
2019-04-07T02:51:01.956Z,18.40
2019-04-07T02:54:03.770Z,18.70
2019-04-07T02:56:50.683Z,19.10
2019-04-07T02:59:33.438Z,20.30
2019-04-07T03:02:14.856Z,19.03
2019-04-07T03:05:06.308Z,19.67
2019-04-07T03:07:59.596Z,21.35
2019-04-07T03:10:42.384Z,18.17
2019-04-07T03:13:26.216Z,24.80
2019-04-07T03:16:07.616Z,22.00
2019-04-07T03:18:43.136Z,17.73
2019-04-07T03:21:28.391Z,18.52
2019-04-07T03:24:06.378Z,20.70
2019-04-07T03:26:51.973Z,18.13
2019-04-07T03:29:45.261Z,19.87
2019-04-07T03:32:46.671Z,17.60
2019-04-07T03:35:46.128Z,18.17
2019-04-07T03:38:36.679Z,20.10
2019-04-07T03:41:12.103Z,18.00
2019-04-07T03:43:48.040Z,19.63
2019-04-07T03:46:41.218Z,20.63
2019-04-07T03:49:43.383Z,21.00
2019-04-07T03:52:21.259Z,21.90
2019-04-07T03:55:06.642Z,20.13
2019-04-07T03:57:52.595Z,22.33
2019-04-07T04:00:41.085Z,21.00
2019-04-07T04:03:17.023Z,19.30
2019-04-07T04:06:06.842Z,18.50
2019-04-07T04:08:56.745Z,20.10
2019-04-07T04:11:43.760Z,38.30
2019-04-07T04:14:17.165Z,39.40
2019-04-07T04:16:49.104Z,20.93
2019-04-07T04:19:17.122Z,23.27
2019-04-07T04:21:45.588Z,18.83
2019-04-07T04:24:14.370Z,39.20
2019-04-07T04:26:42.233Z,47.23
2019-04-07T04:29:10.400Z,65.07
2019-04-07T04:31:38.918Z,73.17
2019-04-07T04:34:06.942Z,40.33
2019-04-07T04:36:36.003Z,29.50
2019-04-07T04:39:04.976Z,32.67
2019-04-07T04:41:33.026Z,81.80
2019-04-07T04:44:00.777Z,22.07
2019-04-07T04:46:28.633Z,20.23
2019-04-07T04:48:56.706Z,27.40
2019-04-07T04:51:24.884Z,25.20
2019-04-07T04:53:53.715Z,20.77
2019-04-07T04:56:22.741Z,20.27
2019-04-07T04:58:51.843Z,23.73
2019-04-07T05:01:20.457Z,24.97
2019-04-07T05:03:49.365Z,28.67
2019-04-07T05:06:17.967Z,21.03
2019-04-07T05:08:46.798Z,23.37
2019-04-07T05:11:14.695Z,19.70
2019-04-07T05:13:43.152Z,22.83
2019-04-07T05:16:11.840Z,24.53
2019-04-07T05:18:39.797Z,22.70
2019-04-07T05:21:07.619Z,27.07
2019-04-07T05:23:36.008Z,26.23
2019-04-07T05:26:04.561Z,23.07
2019-04-07T05:28:36.799Z,22.37
2019-04-07T05:31:02.468Z,23.97
2019-04-07T05:33:30.845Z,26.20
2019-04-07T05:35:59.302Z,23.27
2019-04-07T05:38:27.498Z,24.43
2019-04-07T05:40:55.427Z,25.30
2019-04-07T05:43:23.162Z,26.63
2019-04-07T05:45:51.117Z,26.87
2019-04-07T05:48:20.334Z,23.10
2019-04-07T05:50:48.842Z,25.60
2019-04-07T05:53:17.005Z,26.10
2019-04-07T05:55:44.927Z,27.53
2019-04-07T05:58:15.494Z,129.17
2019-04-07T06:00:45.930Z,148.67
2019-04-07T06:03:12.244Z,93.87
2019-04-07T06:05:40.130Z,69.40
2019-04-07T06:08:22.373Z,138.63
2019-04-07T06:10:38.663Z,167.27
2019-04-07T06:13:06.833Z,77.73
2019-04-07T06:15:34.564Z,59.00
2019-04-07T06:18:02.631Z,50.30
2019-04-07T06:20:31.303Z,32.50
2019-04-07T06:22:59.723Z,41.03
2019-04-07T06:25:33.129Z,31.97
2019-04-07T06:27:57.837Z,30.43
2019-04-07T06:30:28.074Z,28.03
2019-04-07T06:32:55.540Z,25.67
2019-04-07T06:35:23.536Z,28.23
2019-04-07T06:37:52.039Z,32.63
2019-04-07T06:40:20.642Z,32.90
2019-04-07T06:42:49.949Z,31.67
2019-04-07T06:45:21.132Z,34.47
2019-04-07T06:47:53.512Z,33.23
2019-04-07T06:50:47.391Z,37.78
2019-04-07T06:53:21.264Z,44.30
2019-04-07T06:56:11.125Z,43.20
2019-04-07T06:59:06.761Z,39.63
2019-04-07T07:02:12.090Z,43.07
2019-04-07T07:04:58.284Z,37.00
2019-04-07T07:07:49.062Z,38.40
2019-04-07T07:10:45.652Z,40.03
2019-04-07T07:13:36.619Z,34.83
2019-04-07T07:16:36.106Z,30.68
2019-04-07T07:19:14.151Z,28.10
2019-04-07T07:22:00.168Z,33.57
2019-04-07T07:24:28.108Z,31.23
2019-04-07T07:26:57.936Z,30.37
2019-04-07T07:29:26.866Z,31.93
2019-04-07T07:31:59.755Z,33.33
2019-04-07T07:34:24.305Z,28.37
2019-04-07T07:36:54.891Z,31.00
2019-04-07T07:39:23.135Z,29.53
2019-04-07T07:41:52.191Z,24.63
2019-04-07T07:44:20.674Z,29.07
2019-04-07T07:46:50.419Z,28.30
2019-04-07T07:49:18.208Z,27.60
2019-04-07T07:51:48.595Z,34.37
2019-04-07T07:54:16.168Z,33.80
2019-04-07T07:56:48.684Z,26.03
2019-04-07T07:59:13.765Z,28.00
2019-04-07T08:01:44.248Z,23.77
2019-04-07T08:04:11.240Z,24.80
2019-04-07T08:06:41.004Z,25.57
2019-04-07T08:09:13.715Z,24.40
2019-04-07T08:11:38.921Z,27.20
2019-04-07T08:14:07.824Z,22.57
2019-04-07T08:16:35.763Z,29.30
2019-04-07T08:19:04.014Z,26.33
2019-04-07T08:21:32.629Z,22.77
2019-04-07T08:24:01.345Z,27.50
2019-04-07T08:26:29.939Z,25.33
2019-04-07T08:28:57.982Z,23.00
2019-04-07T08:31:25.785Z,24.83
2019-04-07T08:33:53.769Z,23.37
2019-04-07T08:36:21.623Z,25.70
2019-04-07T08:38:51.748Z,25.70
2019-04-07T08:41:19.022Z,27.80
2019-04-07T08:43:47.046Z,27.10
2019-04-07T08:46:15.298Z,22.33
2019-04-07T08:48:43.188Z,28.47
2019-04-07T08:51:11.263Z,26.53
2019-04-07T08:53:43.553Z,21.33
2019-04-07T08:56:08.949Z,21.50
2019-04-07T08:58:38.885Z,22.97
2019-04-07T09:01:07.394Z,26.20
2019-04-07T09:03:35.832Z,25.70
2019-04-07T09:06:04.579Z,25.70
2019-04-07T09:08:34.635Z,22.93
2019-04-07T09:11:11.150Z,29.07
2019-04-07T09:13:39.553Z,21.53
2019-04-07T09:16:19.999Z,20.63
2019-04-07T09:19:05.640Z,20.57
2019-04-07T09:21:54.243Z,23.33
2019-04-07T09:24:40.077Z,18.43
2019-04-07T09:27:19.505Z,25.77
2019-04-07T09:30:02.447Z,17.53
2019-04-07T09:32:48.570Z,24.73
2019-04-07T09:35:36.243Z,18.10
2019-04-07T09:38:24.958Z,21.93
2019-04-07T09:41:06.363Z,22.70
2019-04-07T09:44:03.208Z,21.27
2019-04-07T09:46:51.439Z,20.03
2019-04-07T09:49:30.925Z,18.27
2019-04-07T09:52:15.045Z,20.13
2019-04-07T09:54:53.778Z,15.77
2019-04-07T09:57:40.813Z,17.83
2019-04-07T10:00:22.861Z,17.37
2019-04-07T10:03:12.683Z,17.15
2019-04-07T10:05:56.469Z,16.50
2019-04-07T10:08:55.450Z,17.40
2019-04-07T10:11:46.151Z,21.42
2019-04-07T10:14:43.965Z,22.53
2019-04-07T10:17:37.247Z,22.80
2019-04-07T10:20:36.936Z,25.17
2019-04-07T10:23:19.679Z,18.70
2019-04-07T10:26:10.415Z,17.07
2019-04-07T10:29:01.732Z,17.30
2019-04-07T10:32:01.258Z,19.35
2019-04-07T10:34:56.663Z,18.37
2019-04-07T10:37:37.847Z,18.95
2019-04-07T10:40:20.348Z,20.35
2019-04-07T10:43:07.530Z,20.70
2019-04-07T10:45:46.269Z,18.95
2019-04-07T10:48:35.695Z,20.23
2019-04-07T10:51:37.891Z,17.17
2019-04-07T10:54:25.166Z,16.73
2019-04-07T10:57:03.261Z,14.13
2019-04-07T11:00:05.865Z,16.50
2019-04-07T11:02:55.928Z,15.00
2019-04-07T11:05:34.566Z,12.10
2019-04-07T11:08:27.169Z,12.77
2019-04-07T11:11:16.885Z,13.30
2019-04-07T11:14:03.523Z,15.30
2019-04-07T11:16:49.842Z,14.03
2019-04-07T11:19:38.732Z,13.47
2019-04-07T11:22:25.546Z,18.57
2019-04-07T11:25:10.920Z,19.53
2019-04-07T11:28:00.369Z,16.47
2019-04-07T11:30:42.026Z,14.27
2019-04-07T11:33:35.085Z,13.58
2019-04-07T11:36:37.408Z,12.93
2019-04-07T11:39:27.536Z,15.50
2019-04-07T11:42:33.337Z,14.37
2019-04-07T11:45:26.970Z,14.13
2019-04-07T11:48:25.926Z,13.57
2019-04-07T11:51:08.178Z,12.10
2019-04-07T11:56:53.601Z,12.55
2019-04-07T11:59:53.983Z,13.20
2019-04-07T12:02:46.985Z,12.05
2019-04-07T12:05:49.396Z,10.68
2019-04-07T12:08:32.356Z,13.53
2019-04-07T12:11:14.572Z,12.78
2019-04-07T12:14:09.011Z,13.13
2019-04-07T12:16:50.415Z,11.57
2019-04-07T12:19:43.138Z,13.20
2019-04-07T12:22:28.797Z,15.87
2019-04-07T12:25:05.750Z,12.57
2019-04-07T12:27:58.202Z,12.00
2019-04-07T12:30:32.696Z,13.05
2019-04-07T12:33:25.310Z,11.12
2019-04-07T12:36:02.062Z,13.38
2019-04-07T12:38:52.276Z,14.15
2019-04-07T12:41:40.069Z,12.00
2019-04-07T12:44:17.103Z,13.60
2019-04-07T12:47:08.003Z,15.20
2019-04-07T12:49:53.787Z,16.13
2019-04-07T12:52:39.264Z,15.27
2019-04-07T12:55:26.390Z,15.40
2019-04-07T12:58:04.897Z,17.62
2019-04-07T13:00:56.980Z,14.10
2019-04-07T13:03:25.529Z,15.63
2019-04-07T13:06:12.218Z,17.90
2019-04-07T13:08:56.931Z,16.10
2019-04-07T13:11:37.291Z,16.80
2019-04-07T13:14:22.610Z,16.17
2019-04-07T13:17:04.200Z,15.67
2019-04-07T13:20:09.547Z,17.90
2019-04-07T13:22:55.173Z,15.13
2019-04-07T13:25:38.604Z,15.53
2019-04-07T13:28:12.600Z,15.63
2019-04-07T13:31:02.939Z,16.87
2019-04-07T13:34:01.677Z,16.87
2019-04-07T13:36:51.900Z,14.97
2019-04-07T13:39:27.416Z,16.17
2019-04-07T13:42:29.272Z,14.83
2019-04-07T13:47:52.472Z,15.25
2019-04-07T13:50:39.114Z,18.40
2019-04-07T13:53:27.035Z,18.37
2019-04-07T13:56:25.487Z,15.73
2019-04-07T13:59:01.092Z,17.07
2019-04-07T14:01:52.390Z,17.10
2019-04-07T14:04:36.091Z,15.70
2019-04-07T14:07:23.523Z,62.07
2019-04-07T14:10:05.005Z,34.07
2019-04-07T14:13:06.225Z,13.93
2019-04-07T14:16:11.614Z,15.80
2019-04-07T14:18:54.328Z,15.00
2019-04-07T14:24:23.790Z,17.15
2019-04-07T14:27:00.987Z,15.95
2019-04-07T14:29:47.061Z,15.30
2019-04-07T14:32:32.812Z,15.17
2019-04-07T14:35:31.881Z,21.27
2019-04-07T14:38:27.658Z,20.90
2019-04-07T14:41:14.599Z,21.63
2019-04-07T14:43:54.049Z,18.00
2019-04-07T14:46:40.136Z,19.00
2019-04-07T14:49:28.682Z,18.73
2019-04-07T14:52:19.930Z,16.07
2019-04-07T14:55:22.654Z,16.30
2019-04-07T14:58:13.078Z,29.67
2019-04-07T15:01:02.654Z,137.27
2019-04-07T15:03:27.512Z,133.77
2019-04-07T15:05:57.977Z,16.97
2019-04-07T15:08:47.433Z,16.43
2019-04-07T15:11:34.405Z,19.40
2019-04-07T15:14:02.862Z,17.70
2019-04-07T15:16:30.754Z,19.73
2019-04-07T15:18:58.753Z,21.67
2019-04-07T15:21:27.436Z,22.73
2019-04-07T15:23:56.170Z,17.93
2019-04-07T15:26:24.747Z,21.50
2019-04-07T15:28:52.820Z,16.93
2019-04-07T15:31:21.619Z,19.73
2019-04-07T15:33:49.794Z,25.97
2019-04-07T15:36:19.559Z,16.33
2019-04-07T15:38:47.574Z,17.37
2019-04-07T15:41:17.890Z,21.47
2019-04-07T15:43:45.298Z,18.47
2019-04-07T15:46:17.347Z,20.67
2019-04-07T15:48:43.200Z,19.63
2019-04-07T15:51:13.209Z,18.90
2019-04-07T15:53:44.627Z,19.23
2019-04-07T15:56:13.967Z,23.57
2019-04-07T15:58:40.853Z,20.90
2019-04-07T16:01:09.437Z,20.27
2019-04-07T16:03:38.818Z,18.43
2019-04-07T16:06:07.720Z,171.90
2019-04-07T16:08:35.925Z,195.90
2019-04-07T16:11:03.829Z,37.53
2019-04-07T16:13:31.767Z,26.70
2019-04-07T16:15:59.986Z,21.27
2019-04-07T16:18:28.513Z,22.43
2019-04-07T16:20:56.395Z,20.40
2019-04-07T16:23:24.350Z,21.33
2019-04-07T16:25:52.370Z,25.27
2019-04-07T16:28:20.754Z,37.40
2019-04-07T16:30:51.778Z,155.93
2019-04-07T16:33:18.415Z,128.03
2019-04-07T16:35:50.997Z,250.03
2019-04-07T16:38:16.370Z,144.27
2019-04-07T16:40:44.687Z,32.60
2019-04-07T16:43:15.427Z,25.57
2019-04-07T16:45:44.948Z,24.20
2019-04-07T16:48:12.802Z,23.07
2019-04-07T16:50:41.793Z,23.07
2019-04-07T16:53:09.512Z,24.83
2019-04-07T16:55:37.432Z,24.27
2019-04-07T16:58:05.279Z,23.50
2019-04-07T17:00:33.254Z,27.40
2019-04-07T17:03:02.456Z,31.83
2019-04-07T17:05:30.378Z,25.50
2019-04-07T17:07:59.338Z,26.03
2019-04-07T17:10:30.982Z,24.63
2019-04-07T17:12:59.523Z,23.47
2019-04-07T17:15:26.321Z,22.50
2019-04-07T17:17:54.644Z,28.87
2019-04-07T17:20:25.899Z,27.77
2019-04-07T17:22:52.985Z,30.00
2019-04-07T17:25:21.697Z,48.47
2019-04-07T17:27:49.867Z,123.30
2019-04-07T17:30:18.939Z,92.07
2019-04-07T17:32:46.951Z,30.30
2019-04-07T17:35:17.229Z,27.47
2019-04-07T17:37:44.417Z,27.57
2019-04-07T17:40:15.638Z,28.50
2019-04-07T17:42:43.975Z,27.10
2019-04-07T17:45:37.462Z,52.75
2019-04-07T17:48:46.613Z,31.48
2019-04-07T17:51:12.862Z,29.23
2019-04-07T17:54:00.594Z,36.38
2019-04-07T17:56:45.579Z,29.30
2019-04-07T17:59:37.739Z,29.57
2019-04-07T18:02:47.630Z,30.30
2019-04-07T18:05:33.006Z,29.30
2019-04-07T18:08:15.831Z,28.70
2019-04-07T18:10:54.142Z,29.27
2019-04-07T18:13:49.731Z,36.50
2019-04-07T18:16:46.178Z,161.60
2019-04-07T18:19:32.848Z,108.60
2019-04-07T18:22:18.243Z,36.47
2019-04-07T18:25:07.104Z,35.23
2019-04-07T18:28:00.234Z,39.17
2019-04-07T18:30:53.891Z,35.77
2019-04-07T18:33:41.396Z,32.33
2019-04-07T18:36:28.797Z,29.23
2019-04-07T18:39:17.339Z,26.70
2019-04-07T18:42:06.550Z,30.17
2019-04-07T18:44:52.163Z,33.07
2019-04-07T18:47:45.548Z,28.07
2019-04-07T18:50:26.240Z,32.63
2019-04-07T18:53:04.533Z,28.03
2019-04-07T18:55:50.458Z,27.83
2019-04-07T18:58:51.650Z,29.87
2019-04-07T19:01:38.984Z,26.97
2019-04-07T19:04:26.620Z,31.53
2019-04-07T19:06:58.705Z,30.77
2019-04-07T19:09:39.241Z,32.20
2019-04-07T19:12:20.448Z,29.37
2019-04-07T19:15:15.607Z,30.67
2019-04-07T19:18:20.905Z,36.13
2019-04-07T19:21:09.917Z,30.90
2019-04-07T19:23:58.647Z,32.67
2019-04-07T19:26:52.305Z,29.50
2019-04-07T19:29:49.909Z,32.50
2019-04-07T19:32:34.340Z,30.27
2019-04-07T19:35:21.775Z,32.13
2019-04-07T19:38:03.390Z,31.27
2019-04-07T19:40:49.352Z,30.13
2019-04-07T19:43:43.733Z,28.50
2019-04-07T19:46:32.944Z,39.20
2019-04-07T19:49:20.424Z,34.85
2019-04-07T19:52:07.046Z,34.45
2019-04-07T19:54:51.428Z,40.08
2019-04-07T19:57:47.003Z,54.35
2019-04-07T20:00:51.649Z,65.80
2019-04-07T20:03:39.853Z,65.87
2019-04-07T20:06:17.109Z,57.37
2019-04-07T20:09:07.681Z,51.80
2019-04-07T20:11:39.942Z,40.40
2019-04-07T20:14:15.437Z,40.25
2019-04-07T20:17:04.324Z,42.17
2019-04-07T20:19:42.895Z,35.13
2019-04-07T20:22:28.134Z,39.38
2019-04-07T20:25:16.990Z,46.37
2019-04-07T20:27:56.044Z,38.67
2019-04-07T20:30:52.432Z,39.43
2019-04-07T20:33:38.109Z,39.80
2019-04-07T20:36:23.005Z,36.17
2019-04-07T20:39:00.468Z,35.87
2019-04-07T20:41:56.763Z,33.87
2019-04-07T20:44:38.274Z,40.17
2019-04-07T20:47:26.361Z,40.65
2019-04-07T20:50:10.714Z,40.67
2019-04-07T20:53:10.148Z,43.83
2019-04-07T20:55:58.289Z,40.43
2019-04-07T20:58:55.281Z,46.37
2019-04-07T21:01:36.692Z,44.23
2019-04-07T21:04:28.947Z,36.03
2019-04-07T21:07:24.869Z,38.23
2019-04-07T21:10:12.499Z,38.23
2019-04-07T21:13:05.753Z,42.20
2019-04-07T21:16:01.577Z,44.90
2019-04-07T21:18:50.492Z,37.23
2019-04-07T21:21:43.925Z,35.60
2019-04-07T21:24:21.870Z,33.13
2019-04-07T21:27:02.578Z,45.60
2019-04-07T21:29:55.168Z,36.63
2019-04-07T21:32:31.160Z,35.23
2019-04-07T21:35:17.112Z,35.30
2019-04-07T21:38:22.900Z,39.23
2019-04-07T21:41:08.232Z,35.20
2019-04-07T21:43:55.498Z,35.33
2019-04-07T21:46:52.099Z,37.83
2019-04-07T21:49:51.480Z,36.47
2019-04-07T21:52:45.095Z,37.00
2019-04-07T21:55:34.578Z,37.20
2019-04-07T21:58:24.917Z,37.23
2019-04-07T22:01:14.605Z,42.30
2019-04-07T22:03:49.701Z,43.57
2019-04-07T22:06:33.497Z,42.63
2019-04-07T22:09:23.224Z,40.47
2019-04-07T22:11:54.583Z,42.03
2019-04-07T22:14:21.325Z,46.87
2019-04-07T22:16:49.175Z,42.30
2019-04-07T22:19:17.714Z,42.43
2019-04-07T22:21:45.697Z,44.03
2019-04-07T22:24:14.034Z,47.27
2019-04-07T22:26:47.047Z,43.87
2019-04-07T22:29:11.891Z,43.53
2019-04-07T22:31:51.524Z,46.57
2019-04-07T22:34:19.382Z,40.90
2019-04-07T22:36:47.951Z,41.13
2019-04-07T22:39:16.316Z,41.87
2019-04-07T22:41:44.265Z,41.90
2019-04-07T22:44:12.025Z,45.83
2019-04-07T22:46:39.776Z,42.93
2019-04-07T22:49:07.519Z,41.27
2019-04-07T22:51:35.344Z,41.17
2019-04-07T22:54:03.127Z,38.30
2019-04-07T22:56:31.163Z,39.97
2019-04-07T22:58:59.156Z,40.87
2019-04-07T23:01:27.259Z,42.90
2019-04-07T23:03:56.008Z,38.47
2019-04-07T23:06:24.494Z,39.87
2019-04-07T23:08:53.069Z,37.70
2019-04-07T23:11:21.096Z,38.50
2019-04-07T23:13:49.340Z,40.00
2019-04-07T23:16:17.984Z,37.63
2019-04-07T23:18:46.825Z,41.43
2019-04-07T23:21:15.026Z,41.23
2019-04-07T23:23:42.932Z,43.13
2019-04-07T23:26:10.788Z,46.33
2019-04-07T23:28:39.067Z,40.63
2019-04-07T23:31:07.527Z,39.80
2019-04-07T23:33:36.123Z,37.13
2019-04-07T23:36:04.211Z,36.07
2019-04-07T23:38:33.746Z,37.90
2019-04-07T23:41:01.420Z,35.03
2019-04-07T23:43:29.210Z,36.93
2019-04-07T23:45:56.926Z,41.37
2019-04-07T23:48:24.722Z,36.33
2019-04-07T23:50:52.452Z,34.73
2019-04-07T23:53:20.243Z,35.83
2019-04-07T23:55:48.465Z,36.77
2019-04-07T23:58:16.796Z,39.53
